Kingston, Iowa
Current Conditions -  °F | °C
As of 1:53 AM on Monday 22 Dec 2014 (Local Time) from KBRL Reporting Station
Overcast Overcast  
Wind Chill: 33°   Ceiling: 3800
Heat Index: 39°   Visibility: 9mi
Dew Point: 33°   Wind: 9mph
Humidity: 79%   Direction: 160°SSE
Pressure: 29.85"   Gusts: NA
Location:  41.0155°N, 91.1055°W
Report Text: KBRL 220753Z AUTO 16008KT 9SM OVC038 04/01 A2985 RMK AO2 SLP113 T00390006
Loading
Personal Weather Stations






























Interactive Weather Map New forecast layout! Learn more

10-Day Weather Forecast

Advertisements
Track Severe Weather on mobile